地図

経路データ

SID SEASON NUMBER BASIN SUBBASIN NAME ISO_TIME NATURE LAT LON WMO_WIND WMO_PRES WMO_AGENCY TRACK_TYPE DIST2LAND LANDFALL IFLAG USA_AGENCY USA_ATCF_ID USA_LAT USA_LON USA_RECORD USA_STATUS USA_WIND USA_PRES USA_SSHS USA_R34_NE USA_R34_SE USA_R34_SW USA_R34_NW USA_R50_NE USA_R50_SE USA_R50_SW USA_R50_NW USA_R64_NE USA_R64_SE USA_R64_SW USA_R64_NW USA_POCI USA_ROCI USA_RMW USA_EYE TOKYO_LAT TOKYO_LON TOKYO_GRADE TOKYO_WIND TOKYO_PRES TOKYO_R50_DIR TOKYO_R50_LONG TOKYO_R50_SHORT TOKYO_R30_DIR TOKYO_R30_LONG TOKYO_R30_SHORT TOKYO_LAND CMA_LAT CMA_LON CMA_CAT CMA_WIND CMA_PRES HKO_LAT HKO_LON HKO_CAT HKO_WIND HKO_PRES NEWDELHI_LAT NEWDELHI_LON NEWDELHI_GRADE NEWDELHI_WIND NEWDELHI_PRES NEWDELHI_CI NEWDELHI_DP NEWDELHI_POCI REUNION_LAT REUNION_LON REUNION_TYPE REUNION_WIND REUNION_PRES REUNION_TNUM REUNION_CI REUNION_RMW REUNION_R34_NE REUNION_R34_SE REUNION_R34_SW REUNION_R34_NW REUNION_R50_NE REUNION_R50_SE REUNION_R50_SW REUNION_R50_NW REUNION_R64_NE REUNION_R64_SE REUNION_R64_SW REUNION_R64_NW BOM_LAT BOM_LON BOM_TYPE BOM_WIND BOM_PRES BOM_TNUM BOM_CI BOM_RMW BOM_R34_NE BOM_R34_SE BOM_R34_SW BOM_R34_NW BOM_R50_NE BOM_R50_SE BOM_R50_SW BOM_R50_NW BOM_R64_NE BOM_R64_SE BOM_R64_SW BOM_R64_NW BOM_ROCI BOM_POCI BOM_EYE BOM_POS_METHOD BOM_PRES_METHOD NADI_LAT NADI_LON NADI_CAT NADI_WIND NADI_PRES WELLINGTON_LAT WELLINGTON_LON WELLINGTON_WIND WELLINGTON_PRES DS824_LAT DS824_LON DS824_STAGE DS824_WIND DS824_PRES TD9636_LAT TD9636_LON TD9636_STAGE TD9636_WIND TD9636_PRES TD9635_LAT TD9635_LON TD9635_WIND TD9635_PRES TD9635_ROCI NEUMANN_LAT NEUMANN_LON NEUMANN_CLASS NEUMANN_WIND NEUMANN_PRES MLC_LAT MLC_LON MLC_CLASS MLC_WIND MLC_PRES USA_GUST BOM_GUST BOM_GUST_PER REUNION_GUST REUNION_GUST_PER USA_SEAHGT USA_SEARAD_NE USA_SEARAD_SE USA_SEARAD_SW USA_SEARAD_NW STORM_SPEED STORM_DIR
1966272N13072 1966 91 NI AS NOT_NAMED 1966-09-28 15:00:00 NR 12.5000 72.0000 main 305 295 __________O___ -1 12.5000 72.0000 1 2 90
1966272N13072 1966 91 NI AS NOT_NAMED 1966-09-28 18:00:00 TS 12.5000 72.1125 main 295 273 O________OP___ jtwc_io IO101966 12.5000 72.1000 -1 12.5000 72.1000 TC 12.5001 72.1250 1 3 90
1966272N13072 1966 91 NI AS NOT_NAMED 1966-09-28 21:00:00 TS 12.5001 72.2629 main 273 262 P________PP___ IO101966 12.5000 72.2800 -1 12.5000 72.2800 TC 12.5001 72.2400 1 3 90
1966272N13072 1966 91 NI AS NOT_NAMED 1966-09-29 00:00:00 TS 12.5000 72.3740 main 262 262 O________OP___ jtwc_io IO101966 12.5000 72.4000 -1 12.5000 72.4000 TC 25 12.5000 72.3350 1 1 90
1966272N13072 1966 91 NI AS NOT_NAMED 1966-09-29 03:00:00 TS 12.5000 72.4150 main 262 262 P________PO___ IO101966 12.5000 72.4225 -1 12.5000 72.4225 TC 25 12.5000 72.4000 1 0 90
1966272N13072 1966 91 NI AS NOT_NAMED 1966-09-29 06:00:00 TS 12.5000 72.4096 main 262 262 O________OP___ jtwc_io IO101966 12.5000 72.4000 -1 12.5000 72.4000 TC 25 12.5000 72.4287 1 0 0
1966272N13072 1966 91 NI AS NOT_NAMED 1966-09-29 09:00:00 TS 12.5000 72.4100 main 262 262 P________PP___ IO101966 12.5000 72.4000 -1 12.5000 72.4000 TC 25 12.5000 72.4300 1 0 0
1966272N13072 1966 91 NI AS NOT_NAMED 1966-09-29 12:00:00 TS 12.5000 72.4054 main 262 262 O________OP___ jtwc_io IO101966 12.5000 72.4000 -1 12.5000 72.4000 TC 25 12.5000 72.4163 1 0 0
1966272N13072 1966 91 NI AS NOT_NAMED 1966-09-29 15:00:00 TS 12.5000 72.4000 main 262 262 P________PO___ IO101966 12.5000 72.4000 -1 12.5000 72.4000 TC 25 12.5000 72.4000 1 0 0
1966272N13072 1966 91 NI AS NOT_NAMED 1966-09-29 18:00:00 TS 12.5014 72.3959 main 262 262 O________OP___ jtwc_io IO101966 12.5000 72.4000 -1 12.5000 72.4000 TC 25 12.5041 72.3878 1 0 0
1966272N13072 1966 91 NI AS NOT_NAMED 1966-09-29 21:00:00 TS 12.5025 72.3925 main 262 262 P________PP___ IO101966 12.5000 72.4000 -1 12.5000 72.4000 TC 25 12.5075 72.3775 1 0 0
1966272N13072 1966 91 NI AS NOT_NAMED 1966-09-30 00:00:00 TS 12.5024 72.3928 main 262 262 O________OP___ jtwc_io IO101966 12.5000 72.4000 -1 12.5000 72.4000 TC 25 12.5072 72.3784 1 0 0
1966272N13072 1966 91 NI AS NOT_NAMED 1966-09-30 03:00:00 TS 12.5050 72.3900 main 262 262 P________PO___ IO101966 12.5075 72.3850 -1 12.5075 72.3850 TC 25 12.5000 72.4000 1 0 0
1966272N13072 1966 91 NI AS NOT_NAMED 1966-09-30 06:00:00 TS 12.4927 72.4165 main 262 251 O________OP___ jtwc_io IO101966 12.5000 72.4000 -1 12.5000 72.4000 TC 25 12.4781 72.4494 1 1 118
1966272N13072 1966 91 NI AS NOT_NAMED 1966-09-30 09:00:00 TS 12.4500 72.4967 main 251 243 P________PP___ IO101966 12.4500 72.4850 -1 12.4500 72.4850 TC 25 12.4500 72.5200 1 2 115
1966272N13072 1966 91 NI AS NOT_NAMED 1966-09-30 12:00:00 TS 12.4073 72.6019 main 243 232 O________OP___ jtwc_io IO101966 12.4000 72.6000 -1 12.4000 72.6000 TC 25 12.4219 72.6056 1 2 106
1966272N13072 1966 91 NI AS NOT_NAMED 1966-09-30 15:00:00 TS 12.3950 72.7000 main 232 221 P________PO___ IO101966 12.3925 72.7000 -1 12.3925 72.7000 TC 25 12.4000 72.7000 1 2 93
1966272N13072 1966 91 NI AS NOT_NAMED 1966-09-30 18:00:00 TS 12.3976 72.8003 main 221 211 O________OP___ jtwc_io IO101966 12.4000 72.8000 -1 12.4000 72.8000 TC 25 12.3928 72.8009 1 2 89
1966272N13072 1966 91 NI AS NOT_NAMED 1966-09-30 21:00:00 TS 12.3975 72.9075 main 211 200 P________PP___ IO101966 12.4000 72.9075 -1 12.4000 72.9075 TC 30 12.3925 72.9075 1 2 90
1966272N13072 1966 91 NI AS NOT_NAMED 1966-10-01 00:00:00 TS 12.3987 73.0034 main 200 189 O________OP___ jtwc_io IO101966 12.4000 73.0000 -1 12.4000 73.0000 TC 35 12.3960 73.0103 1 2 89
1966272N13072 1966 91 NI AS NOT_NAMED 1966-10-01 03:00:00 TS 12.4000 73.0717 main 189 189 P________PO___ IO101966 12.4000 73.0575 -1 12.4000 73.0575 TC 35 12.4000 73.1000 2 1 91
1966272N13072 1966 91 NI AS NOT_NAMED 1966-10-01 06:00:00 TS 12.3959 73.1215 main 189 179 O________OP___ jtwc_io IO101966 12.4000 73.1000 -1 12.4000 73.1000 TC 35 12.3878 73.1644 2 1 94
1966272N13072 1966 91 NI AS NOT_NAMED 1966-10-01 09:00:00 TS 12.3925 73.1717 main 179 179 P________PP___ IO101966 12.4000 73.1500 -1 12.4000 73.1500 TC 35 12.3775 73.2150 2 1 92
1966272N13072 1966 91 NI AS NOT_NAMED 1966-10-01 12:00:00 TS 12.3928 73.2194 main 179 168 O________OP___ jtwc_io IO101966 12.4000 73.2000 -1 12.4000 73.2000 TC 35 12.3784 73.2581 2 1 91
1966272N13072 1966 91 NI AS NOT_NAMED 1966-10-01 15:00:00 TS 12.3900 73.2667 main 168 168 P________PO___ IO101966 12.3850 73.2500 -1 12.3850 73.2500 TC 35 12.4000 73.3000 3 1 78
1966272N13072 1966 91 NI AS NOT_NAMED 1966-10-01 18:00:00 TS 12.4124 73.3194 main 168 155 O________OP___ jtwc_io IO101966 12.4000 73.3000 -1 12.4000 73.3000 TC 35 12.4372 73.3581 3 1 49
1966272N13072 1966 91 NI AS NOT_NAMED 1966-10-01 21:00:00 TS 12.4842 73.3717 main 155 153 P________PP___ IO101966 12.4775 73.3500 -1 12.4775 73.3500 TC 35 12.4975 73.4150 3 2 28
1966272N13072 1966 91 NI AS NOT_NAMED 1966-10-02 00:00:00 TS 12.5947 73.4214 main 153 141 O________OP___ jtwc_io IO101966 12.6000 73.4000 -1 12.6000 73.4000 TC 35 12.5841 73.4643 3 3 22
1966272N13072 1966 91 NI AS NOT_NAMED 1966-10-02 03:00:00 TS 12.7283 73.4717 main 141 137 P________PO___ IO101966 12.7425 73.4575 -1 12.7425 73.4575 TC 35 12.7000 73.5000 3 3 15
1966272N13072 1966 91 NI AS NOT_NAMED 1966-10-02 06:00:00 TS 12.8807 73.5061 main 137 134 O________OP___ jtwc_io IO101966 12.9000 73.5000 -1 12.9000 73.5000 TC 35 12.8422 73.5184 3 3 7
1966272N13072 1966 91 NI AS NOT_NAMED 1966-10-02 09:00:00 TS 13.0325 73.5125 main 134 130 P________PP___ IO101966 13.0425 73.5075 -1 13.0425 73.5075 TC 35 13.0125 73.5225 3 3 0
1966272N13072 1966 91 NI AS NOT_NAMED 1966-10-02 12:00:00 TS 13.2005 73.5051 main 130 129 O________OP___ jtwc_io IO101966 13.2000 73.5000 -1 13.2000 73.5000 TC 35 13.2016 73.5153 3 4 359
1966272N13072 1966 91 NI AS NOT_NAMED 1966-10-02 15:00:00 TS 13.3950 73.5000 main 129 121 P________PO___ IO101966 13.3925 73.5000 -1 13.3925 73.5000 TC 35 13.4000 73.5000 3 4 1
1966272N13072 1966 91 NI AS NOT_NAMED 1966-10-02 18:00:00 TS 13.5921 73.5129 main 121 112 O________OP___ jtwc_io IO101966 13.6000 73.5000 -1 13.6000 73.5000 TC 35 13.5764 73.5386 3 4 6
1966272N13072 1966 91 NI AS NOT_NAMED 1966-10-02 21:00:00 TS 13.7824 73.5355 main 112 102 P________PP___ IO101966 13.7925 73.5224 -1 13.7925 73.5224 TC 30 13.7621 73.5617 3 4 356
1966272N13072 1966 91 NI AS NOT_NAMED 1966-10-03 00:00:00 TS 13.9889 73.5097 main 102 99 O________OP___ jtwc_io IO101966 14.0000 73.5000 -1 14.0000 73.5000 TC 25 13.9668 73.5290 3 5 344
1966272N13072 1966 91 NI AS NOT_NAMED 1966-10-03 03:00:00 TS 14.2233 73.4066 main 100 93 P________PO___ IO101966 14.2349 73.4099 -1 14.2349 73.4099 TC 25 14.2000 73.4000 1 6 328
1966272N13072 1966 91 NI AS NOT_NAMED 1966-10-03 06:00:00 TS 14.4972 73.1795 main 100 100 O________OP___ jtwc_io IO101966 14.5000 73.2000 -1 14.5000 73.2000 TC 25 14.4917 73.1384 1 8 316
1966272N13072 1966 91 NI AS NOT_NAMED 1966-10-03 09:00:00 TS 14.8026 72.8278 main 122 120 P________PP___ IO101966 14.8000 72.8525 -1 14.8000 72.8525 TC 25 14.8077 72.7782 1 10 308
1966272N13072 1966 91 NI AS NOT_NAMED 1966-10-03 12:00:00 TS 15.1066 72.3846 main 150 150 O________OP___ jtwc_io IO101966 15.1000 72.4000 -1 15.1000 72.4000 TC 25 15.1198 72.3539 1 11 303
1966272N13072 1966 91 NI AS NOT_NAMED 1966-10-03 15:00:00 TS 15.3767 71.9050 main 188 188 P________PO___ IO101966 15.3650 71.9075 -1 15.3650 71.9075 TC 25 15.4000 71.9000 1 11 298
1966272N13072 1966 91 NI AS NOT_NAMED 1966-10-03 18:00:00 TS 15.6091 71.4211 main 226 226 O________OP___ jtwc_io IO101966 15.6000 71.4000 -1 15.6000 71.4000 TC 25 15.6272 71.4633 1 10 296
1966272N13072 1966 91 NI AS NOT_NAMED 1966-10-03 21:00:00 TS 15.8208 70.9591 main 257 257 P________PP___ IO101966 15.8224 70.9350 -1 15.8224 70.9350 TC 25 15.8176 71.0074 1 10 294
1966272N13072 1966 91 NI AS NOT_NAMED 1966-10-04 00:00:00 TS 15.9914 70.5159 main 304 304 O________OP___ jtwc_io IO101966 16.0000 70.5000 -1 16.0000 70.5000 TC 25 15.9741 70.5477 1 9 290
1966272N13072 1966 91 NI AS NOT_NAMED 1966-10-04 03:00:00 TS 16.1149 70.0949 main 344 344 P________PO___ IO101966 16.1224 70.0924 -1 16.1224 70.0924 TC 25 16.1000 70.1000 1 8 285
1966272N13072 1966 91 NI AS NOT_NAMED 1966-10-04 06:00:00 TS 16.2039 69.6924 main 385 385 O________OP___ jtwc_io IO101966 16.2000 69.7000 -1 16.2000 69.7000 TC 25 16.2116 69.6772 1 8 281
1966272N13072 1966 91 NI AS NOT_NAMED 1966-10-04 09:00:00 TS 16.2698 69.2899 main 427 427 P________PP___ IO101966 16.2574 69.2999 -1 16.2574 69.2999 TC 25 16.2947 69.2697 1 8 278
1966272N13072 1966 91 NI AS NOT_NAMED 1966-10-04 12:00:00 TS 16.3185 68.8924 main 469 469 O________OP___ jtwc_io IO101966 16.3000 68.9000 -1 16.3000 68.9000 TC 25 16.3554 68.8773 1 8 277
1966272N13072 1966 91 NI AS NOT_NAMED 1966-10-04 15:00:00 TS 16.3666 68.4950 main 507 507 P________PO___ IO101966 16.3500 68.4925 -1 16.3500 68.4925 TC 25 16.4000 68.5000 1 8 277
1966272N13072 1966 91 NI AS NOT_NAMED 1966-10-04 18:00:00 TS 16.4136 68.1148 main 548 548 O________OP___ jtwc_io IO101966 16.4000 68.1000 -1 16.4000 68.1000 TC 25 16.4340 68.1370 1 7 277
1966272N13072 1966 91 NI AS NOT_NAMED 1966-10-04 21:00:00 TS 16.4545 67.7594 main 566 566 P________PP___ IO101966 16.4501 67.7400 -1 16.4501 67.7400 TC 25 16.4604 67.7851 1 7 277
1966272N13072 1966 91 NI AS NOT_NAMED 1966-10-05 00:00:00 TS 16.4908 67.4203 main 590 590 O________OP___ jtwc_io IO101966 16.5000 67.4000 -1 16.5000 67.4000 TC 25 16.4816 67.4407 1 6 274
1966272N13072 1966 91 NI AS NOT_NAMED 1966-10-05 03:00:00 NR 16.5000 67.1000 main 608 __________O___ IO101966 -1 TC 16.5000 67.1000 1 6 272

IBTrACS Databaseについて

本データベースは、米国NOAAが公開する1842年以降の世界の熱帯低気圧のベストトラックデータアーカイブInternational Best Track Archive for Climate Stewardship (IBTrACS)を、ウェブで閲覧しやすい形式に変換したものです。

最終更新日:2021-10-08